Time;durP1;ratioP1;P1;durP2;ratioP2;P2;SDS_P1;SDS_P2;PMS_P1;PMS_P2;Temp;Humidity;BMP_temperature;BMP_pressure;BME280_temperature;BME280_humidity;BME280_pressure;Samples;Min_cycle;Max_cycle;Signal;HPM_P1;HPM_P2
2022/10/12 00:00:09;;;;;;;0.40;0.40;;;7.50;99.90;;;;;;5053059;28;20424;-67
2022/10/12 00:02:57;;;;;;;0.40;0.40;;;7.50;99.90;;;;;;5054033;28;20428;-67
2022/10/12 00:05:45;;;;;;;0.40;0.40;;;7.50;99.90;;;;;;5053059;28;20501;-67
2022/10/12 00:08:35;;;;;;;0.40;0.40;;;7.40;99.90;;;;;;5053449;28;20579;-67
2022/10/12 00:11:25;;;;;;;0.40;0.40;;;7.40;99.90;;;;;;5054255;28;20886;-67
2022/10/12 00:14:15;;;;;;;0.40;0.40;;;7.30;99.90;;;;;;5052627;28;20943;-67
2022/10/12 00:17:04;;;;;;;0.40;0.40;;;7.40;99.90;;;;;;5053087;28;20424;-68
2022/10/12 00:19:52;;;;;;;0.40;0.40;;;7.40;99.90;;;;;;5052362;28;20424;-67
2022/10/12 00:22:40;;;;;;;0.40;0.40;;;7.30;99.90;;;;;;5052819;28;20427;-67
2022/10/12 00:25:28;;;;;;;0.40;0.40;;;7.40;99.90;;;;;;5053289;28;20456;-67
2022/10/12 00:28:16;;;;;;;0.40;0.40;;;7.20;99.90;;;;;;5052835;28;20562;-66
2022/10/12 00:31:10;;;;;;;0.40;0.40;;;7.40;99.90;;;;;;5052609;28;20499;-66
2022/10/12 00:33:59;;;;;;;0.60;0.60;;;7.20;99.90;;;;;;5053600;28;20448;-66
2022/10/12 00:36:47;;;;;;;0.50;0.50;;;7.20;99.90;;;;;;5053616;28;20513;-69
2022/10/12 00:39:36;;;;;;;0.40;0.40;;;7.20;99.90;;;;;;5051913;28;20427;-68
2022/10/12 00:42:24;;;;;;;0.40;0.40;;;7.20;99.90;;;;;;5052113;28;20426;-67
2022/10/12 00:45:12;;;;;;;0.40;0.40;;;7.10;99.90;;;;;;5053266;28;20501;-67
2022/10/12 00:48:01;;;;;;;0.40;0.40;;;7.10;99.90;;;;;;5052582;28;20479;-67
2022/10/12 00:50:50;;;;;;;0.40;0.40;;;7.10;99.90;;;;;;5051850;28;20547;-67
2022/10/12 00:53:42;;;;;;;0.77;0.77;;;7.10;99.90;;;;;;5053882;28;20442;-68
2022/10/12 00:56:33;;;;;;;0.40;0.40;;;7.00;99.90;;;;;;5049730;28;20811;-67
2022/10/12 00:59:35;;;;;;;0.40;0.40;;;7.00;99.90;;;;;;5032605;28;20520;-67
2022/10/12 01:02:25;;;;;;;0.40;0.40;;;7.00;99.90;;;;;;5033436;28;20432;-67
2022/10/12 01:05:14;;;;;;;0.40;0.40;;;7.00;99.90;;;;;;5033685;28;20448;-67
2022/10/12 01:08:03;;;;;;;0.40;0.40;;;7.00;99.90;;;;;;5033216;28;20516;-67
2022/10/12 01:10:51;;;;;;;1.90;1.80;;;7.00;99.90;;;;;;5032910;28;20461;-67
2022/10/12 01:13:39;;;;;;;0.40;0.40;;;7.00;99.90;;;;;;5033651;28;20511;-67
2022/10/12 01:16:33;;;;;;;0.40;0.40;;;7.00;99.90;;;;;;5033564;28;20929;-71
2022/10/12 01:19:38;;;;;;;0.40;0.40;;;7.00;99.90;;;;;;5059506;28;20455;-67
2022/10/12 01:22:34;;;;;;;0.40;0.40;;;7.00;99.90;;;;;;5046831;28;20499;-66
2022/10/12 01:25:42;;;;;;;0.50;0.50;;;6.90;99.90;;;;;;5052988;28;20891;-66
2022/10/12 01:28:40;;;;;;;0.50;0.50;;;6.90;99.90;;;;;;5052882;28;20420;-66
2022/10/12 01:31:36;;;;;;;0.40;0.40;;;6.90;99.90;;;;;;5052776;28;20621;-66
2022/10/12 01:34:31;;;;;;;0.40;0.40;;;6.90;99.90;;;;;;5053727;28;20448;-66
2022/10/12 01:37:27;;;;;;;0.60;0.60;;;6.90;99.90;;;;;;5051051;28;20511;-67
2022/10/12 01:40:24;;;;;;;1.23;1.23;;;6.90;99.90;;;;;;5051448;28;20424;-68
2022/10/12 01:43:12;;;;;;;0.40;0.40;;;6.80;99.90;;;;;;5052092;28;20507;-67
2022/10/12 01:46:27;;;;;;;0.40;0.40;;;6.90;99.90;;;;;;5053572;28;20448;-67
2022/10/12 01:49:20;;;;;;;0.40;0.40;;;6.80;99.90;;;;;;5052449;28;20650;-65
2022/10/12 01:52:22;;;;;;;0.40;0.40;;;6.80;99.90;;;;;;5052549;28;20463;-66
2022/10/12 01:55:22;;;;;;;0.40;0.40;;;6.80;99.90;;;;;;5054845;28;20444;-66
2022/10/12 01:58:26;;;;;;;0.40;0.40;;;6.70;99.90;;;;;;5052355;28;20613;-67
2022/10/12 02:01:23;;;;;;;0.40;0.40;;;6.70;99.90;;;;;;5042478;28;20805;-68
2022/10/12 02:04:21;;;;;;;0.50;0.50;;;6.70;99.90;;;;;;5033822;28;21029;-66
2022/10/12 02:07:14;;;;;;;0.40;0.40;;;6.70;99.90;;;;;;5033984;28;20423;-66
2022/10/12 02:10:05;;;;;;;0.40;0.40;;;6.70;99.90;;;;;;5036482;28;20436;-66
2022/10/12 02:12:56;;;;;;;0.40;0.40;;;6.70;99.90;;;;;;5035900;28;20460;-66
2022/10/12 02:15:44;;;;;;;0.40;0.40;;;6.70;99.90;;;;;;5037243;28;20587;-66
2022/10/12 02:18:34;;;;;;;0.40;0.40;;;6.70;99.90;;;;;;5039090;28;20508;-66
2022/10/12 02:21:29;;;;;;;0.40;0.40;;;6.70;99.90;;;;;;5043598;28;20432;-67
2022/10/12 02:24:18;;;;;;;0.40;0.40;;;6.60;99.90;;;;;;5047882;28;20420;-67
2022/10/12 02:27:08;;;;;;;0.50;0.50;;;6.60;99.90;;;;;;5087263;22;20862;-68
2022/10/12 02:29:56;;;;;;;0.40;0.40;;;6.60;99.90;;;;;;5107496;28;20479;-68
2022/10/12 02:32:53;;;;;;;0.40;0.40;;;6.50;99.90;;;;;;5109629;28;20482;-68
2022/10/12 02:35:50;;;;;;;0.40;0.40;;;6.60;99.90;;;;;;5106697;28;20952;-68
2022/10/12 02:38:43;;;;;;;0.40;0.40;;;6.50;99.90;;;;;;5107506;28;20537;-69
2022/10/12 02:41:37;;;;;;;0.40;0.40;;;6.50;99.90;;;;;;5107870;28;20422;-68
2022/10/12 02:44:30;;;;;;;0.40;0.40;;;6.50;99.90;;;;;;5107334;28;20441;-68
2022/10/12 02:47:20;;;;;;;0.50;0.50;;;6.50;99.90;;;;;;5106939;28;20434;-69
2022/10/12 02:50:10;;;;;;;0.50;0.50;;;6.40;99.90;;;;;;5107172;28;20426;-69
2022/10/12 02:52:58;;;;;;;1.13;1.13;;;6.50;99.90;;;;;;5107565;28;20981;-68
2022/10/12 02:55:49;;;;;;;0.40;0.40;;;6.40;99.90;;;;;;5106503;28;20422;-68
2022/10/12 02:58:38;;;;;;;1.00;1.00;;;6.50;99.90;;;;;;5084422;28;20457;-69
2022/10/12 03:01:26;;;;;;;0.40;0.40;;;6.50;99.90;;;;;;5079983;28;20420;-69
2022/10/12 03:04:14;;;;;;;0.40;0.40;;;6.40;99.90;;;;;;5076304;28;20808;-68
2022/10/12 03:07:02;;;;;;;0.50;0.50;;;6.40;99.90;;;;;;5074568;28;20449;-68
2022/10/12 03:09:50;;;;;;;0.40;0.40;;;6.40;99.90;;;;;;5074084;28;20511;-69
2022/10/12 03:12:39;;;;;;;1.27;1.23;;;6.40;99.90;;;;;;5073748;28;20911;-68
2022/10/12 03:15:27;;;;;;;0.43;0.43;;;6.40;99.90;;;;;;5073667;28;20526;-68
2022/10/12 03:18:15;;;;;;;0.50;0.50;;;6.40;99.90;;;;;;5089338;28;20904;-68
2022/10/12 03:21:04;;;;;;;0.47;0.47;;;6.30;99.90;;;;;;5095175;28;20422;-68
2022/10/12 03:23:52;;;;;;;0.87;0.87;;;6.30;99.90;;;;;;5094477;28;20426;-68
2022/10/12 03:26:40;;;;;;;0.40;0.40;;;6.30;99.90;;;;;;5094222;28;20421;-68
2022/10/12 03:29:29;;;;;;;0.50;0.50;;;6.30;99.90;;;;;;5095715;28;20872;-67
2022/10/12 03:32:17;;;;;;;0.43;0.43;;;6.30;99.90;;;;;;5095692;28;20603;-68
2022/10/12 03:35:07;;;;;;;0.40;0.40;;;6.30;99.90;;;;;;5094042;28;20520;-67
2022/10/12 03:37:55;;;;;;;0.40;0.40;;;6.30;99.90;;;;;;5094694;28;20585;-67
2022/10/12 03:40:43;;;;;;;1.47;1.47;;;6.20;99.90;;;;;;5095120;28;20448;-67
2022/10/12 03:43:31;;;;;;;0.50;0.50;;;6.20;99.90;;;;;;5094558;28;20418;-67
2022/10/12 03:46:21;;;;;;;0.40;0.40;;;6.20;99.90;;;;;;5094860;28;20415;-67
2022/10/12 03:49:09;;;;;;;0.93;0.93;;;6.20;99.90;;;;;;5093859;28;20427;-67
2022/10/12 03:51:57;;;;;;;0.40;0.40;;;6.20;99.90;;;;;;5094594;28;20433;-67
2022/10/12 03:54:44;;;;;;;0.40;0.40;;;6.20;99.90;;;;;;5096204;28;20964;-67
2022/10/12 03:57:32;;;;;;;0.40;0.40;;;6.20;99.90;;;;;;5083050;28;20451;-67
2022/10/12 04:00:21;;;;;;;0.70;0.70;;;6.20;99.90;;;;;;5074981;28;20517;-67
2022/10/12 04:03:10;;;;;;;0.40;0.40;;;6.10;99.90;;;;;;5073562;28;20958;-66
2022/10/12 04:05:58;;;;;;;0.40;0.40;;;6.10;99.90;;;;;;5075395;28;20438;-66
2022/10/12 04:08:46;;;;;;;0.40;0.40;;;6.00;99.90;;;;;;5075087;28;20440;-66
2022/10/12 04:11:38;;;;;;;0.40;0.40;;;6.00;99.90;;;;;;5074273;28;20438;-66
2022/10/12 04:14:25;;;;;;;0.50;0.50;;;6.00;99.90;;;;;;5073546;28;20422;-66
2022/10/12 04:17:15;;;;;;;0.50;0.50;;;6.00;99.90;;;;;;5074834;28;20443;-66
2022/10/12 04:20:05;;;;;;;0.40;0.40;;;5.90;99.90;;;;;;5074326;28;20926;-67
2022/10/12 04:22:53;;;;;;;0.40;0.40;;;6.00;99.90;;;;;;5074289;28;20415;-67
2022/10/12 04:25:42;;;;;;;0.50;0.50;;;5.90;99.90;;;;;;5074611;28;20869;-67
2022/10/12 04:28:30;;;;;;;0.43;0.43;;;5.90;99.90;;;;;;5073415;28;20455;-67
2022/10/12 04:31:18;;;;;;;0.50;0.50;;;5.90;99.90;;;;;;5073390;28;20426;-67
2022/10/12 04:34:06;;;;;;;0.40;0.40;;;5.90;99.90;;;;;;5073351;28;20473;-67
2022/10/12 04:36:55;;;;;;;0.50;0.50;;;5.80;99.90;;;;;;5073920;28;20447;-67
2022/10/12 04:39:43;;;;;;;0.40;0.40;;;5.80;99.90;;;;;;5071887;28;20419;-67
2022/10/12 04:42:31;;;;;;;0.50;0.50;;;5.80;99.90;;;;;;5073737;28;20423;-68
2022/10/12 04:45:19;;;;;;;0.50;0.50;;;5.80;99.90;;;;;;5073274;28;20419;-67
2022/10/12 04:48:07;;;;;;;0.40;0.40;;;5.80;99.90;;;;;;5072635;28;20446;-67
2022/10/12 04:50:55;;;;;;;0.50;0.50;;;5.80;99.90;;;;;;5073674;28;20419;-69
2022/10/12 04:53:44;;;;;;;0.87;0.87;;;5.80;99.90;;;;;;5072576;28;20466;-66
2022/10/12 04:56:32;;;;;;;0.50;0.50;;;5.70;99.90;;;;;;5076956;28;20422;-69
2022/10/12 04:59:20;;;;;;;0.60;0.60;;;5.70;99.90;;;;;;5093113;28;20418;-68
2022/10/12 05:02:08;;;;;;;0.40;0.40;;;5.70;99.90;;;;;;5092429;28;20625;-69
2022/10/12 05:04:56;;;;;;;0.40;0.40;;;5.70;99.90;;;;;;5092539;28;20980;-69
2022/10/12 05:07:44;;;;;;;1.63;1.57;;;5.70;99.90;;;;;;5094030;28;20450;-67
2022/10/12 05:10:34;;;;;;;0.50;0.50;;;5.60;99.90;;;;;;5093365;28;20513;-67
2022/10/12 05:13:22;;;;;;;0.50;0.50;;;5.60;99.90;;;;;;5093719;28;20514;-67
2022/10/12 05:16:10;;;;;;;0.50;0.50;;;5.60;99.90;;;;;;5093274;28;20414;-67
2022/10/12 05:18:58;;;;;;;0.40;0.40;;;5.60;99.90;;;;;;5093266;28;20418;-67
2022/10/12 05:21:45;;;;;;;0.50;0.50;;;5.60;99.90;;;;;;5093140;28;20425;-67
2022/10/12 05:24:33;;;;;;;0.50;0.50;;;5.60;99.90;;;;;;5093274;28;20418;-67
2022/10/12 05:27:23;;;;;;;0.50;0.50;;;5.50;99.90;;;;;;5092700;28;20461;-67
2022/10/12 05:30:11;;;;;;;0.47;0.47;;;5.60;99.90;;;;;;5092521;28;20429;-68
2022/10/12 05:32:59;;;;;;;0.50;0.50;;;5.50;99.90;;;;;;5093916;28;20470;-67
2022/10/12 05:35:48;;;;;;;0.50;0.50;;;5.60;99.90;;;;;;5092893;28;20431;-68
2022/10/12 05:38:43;;;;;;;0.40;0.40;;;5.50;99.90;;;;;;5093064;28;20443;-68
2022/10/12 05:41:31;;;;;;;0.50;0.50;;;5.50;99.90;;;;;;5085080;28;20432;-68
2022/10/12 05:44:20;;;;;;;1.50;1.50;;;5.50;99.90;;;;;;5081401;28;20416;-68
2022/10/12 05:47:08;;;;;;;0.50;0.50;;;5.60;99.90;;;;;;5073970;28;20435;-67
2022/10/12 05:49:56;;;;;;;0.50;0.50;;;5.60;99.90;;;;;;5073548;28;20411;-67
2022/10/12 05:52:44;;;;;;;0.50;0.50;;;5.60;99.90;;;;;;5094565;28;20414;-67
2022/10/12 05:55:33;;;;;;;0.50;0.50;;;5.60;99.90;;;;;;5092689;28;20477;-67
2022/10/12 05:58:21;;;;;;;0.40;0.40;;;5.60;99.90;;;;;;5075128;28;20538;-67
2022/10/12 06:01:12;;;;;;;0.50;0.50;;;5.60;99.90;;;;;;5072254;28;20969;-67
2022/10/12 06:04:00;;;;;;;0.50;0.50;;;5.60;99.90;;;;;;5083098;28;20953;-67
2022/10/12 06:06:48;;;;;;;0.40;0.40;;;5.70;99.90;;;;;;5093735;28;20827;-67
2022/10/12 06:09:37;;;;;;;0.50;0.50;;;5.70;99.90;;;;;;5086615;28;20435;-67
2022/10/12 06:12:26;;;;;;;0.40;0.40;;;5.70;99.90;;;;;;5091911;28;20418;-67
2022/10/12 06:15:14;;;;;;;0.40;0.40;;;5.80;99.90;;;;;;5085326;28;20821;-68
2022/10/12 06:18:04;;;;;;;0.60;0.60;;;5.80;99.90;;;;;;5074700;28;20451;-67
2022/10/12 06:20:54;;;;;;;0.50;0.50;;;5.80;99.90;;;;;;5077261;28;20443;-67
2022/10/12 06:24:03;;;;;;;0.50;0.50;;;5.90;99.90;;;;;;5072895;28;20411;-67
2022/10/12 06:26:51;;;;;;;0.50;0.50;;;5.90;99.90;;;;;;5093468;28;20469;-67
2022/10/12 06:29:40;;;;;;;1.90;1.80;;;5.90;99.90;;;;;;5092381;28;21017;-67
2022/10/12 06:32:28;;;;;;;0.50;0.50;;;6.00;99.90;;;;;;5092335;28;20428;-67
2022/10/12 06:35:17;;;;;;;0.40;0.40;;;6.10;99.90;;;;;;5091876;28;20462;-67
2022/10/12 06:38:05;;;;;;;0.40;0.40;;;6.20;99.90;;;;;;5077331;28;20530;-67
2022/10/12 06:40:53;;;;;;;0.50;0.50;;;6.20;99.90;;;;;;5072481;28;20423;-68
2022/10/12 06:43:41;;;;;;;0.50;0.50;;;6.30;99.90;;;;;;5071298;28;20772;-67
2022/10/12 06:46:29;;;;;;;0.40;0.40;;;6.40;99.90;;;;;;5071624;28;20423;-67
2022/10/12 06:49:18;;;;;;;0.70;0.70;;;6.40;99.90;;;;;;5070377;28;20781;-67
2022/10/12 06:52:07;;;;;;;0.70;0.70;;;6.40;99.90;;;;;;5071405;28;20423;-67
2022/10/12 06:54:55;;;;;;;0.50;0.50;;;6.50;99.90;;;;;;5072997;28;20467;-67
2022/10/12 06:57:43;;;;;;;0.50;0.50;;;6.60;99.90;;;;;;5074411;28;20448;-67
2022/10/12 07:00:31;;;;;;;0.50;0.50;;;6.70;99.90;;;;;;5075330;28;20437;-68
2022/10/12 07:03:19;;;;;;;0.93;0.93;;;6.70;99.90;;;;;;5076321;28;20430;-68
2022/10/12 07:06:10;;;;;;;0.40;0.40;;;6.80;99.90;;;;;;5074356;28;20434;-68
2022/10/12 07:09:00;;;;;;;0.50;0.50;;;6.90;99.90;;;;;;5075105;28;20426;-68
2022/10/12 07:11:48;;;;;;;0.50;0.50;;;7.00;99.90;;;;;;5074751;28;20415;-68
2022/10/12 07:14:36;;;;;;;0.50;0.50;;;7.00;99.90;;;;;;5089930;28;20466;-67
2022/10/12 07:17:24;;;;;;;0.50;0.50;;;7.10;99.90;;;;;;5094547;28;20438;-67
2022/10/12 07:20:12;;;;;;;0.50;0.50;;;7.10;99.90;;;;;;5094303;28;20422;-67
2022/10/12 07:23:00;;;;;;;0.40;0.40;;;7.20;99.90;;;;;;5093913;28;20946;-67
2022/10/12 07:25:49;;;;;;;0.40;0.40;;;7.20;99.90;;;;;;5094381;28;20471;-68
2022/10/12 07:28:38;;;;;;;0.40;0.40;;;7.30;99.90;;;;;;5092690;28;20454;-68
2022/10/12 07:31:26;;;;;;;0.40;0.40;;;7.30;99.90;;;;;;5085152;28;20426;-68
2022/10/12 07:34:15;;;;;;;0.63;0.63;;;7.40;99.90;;;;;;5083286;28;20455;-67
2022/10/12 07:37:03;;;;;;;0.40;0.40;;;7.50;99.90;;;;;;5093267;28;20445;-66
2022/10/12 07:39:55;;;;;;;0.50;0.50;;;7.50;99.90;;;;;;5094087;28;20478;-67
2022/10/12 07:42:45;;;;;;;0.40;0.40;;;7.60;99.90;;;;;;5093205;28;20426;-67
2022/10/12 07:45:53;;;;;;;0.40;0.40;;;7.70;99.90;;;;;;5093826;28;20425;-66
2022/10/12 07:48:42;;;;;;;0.50;0.50;;;7.80;99.90;;;;;;5084905;28;20493;-67
2022/10/12 07:51:37;;;;;;;0.50;0.50;;;7.90;99.90;;;;;;5086223;28;20419;-67
2022/10/12 07:54:25;;;;;;;0.40;0.40;;;8.00;99.90;;;;;;5077297;28;20945;-67
2022/10/12 07:57:16;;;;;;;0.40;0.40;;;8.10;99.90;;;;;;5084749;28;20946;-67
2022/10/12 08:00:07;;;;;;;0.43;0.43;;;8.10;99.90;;;;;;5096349;28;20519;-68
2022/10/12 08:02:55;;;;;;;0.50;0.50;;;8.30;99.90;;;;;;5096718;28;20951;-67
2022/10/12 08:05:43;;;;;;;0.40;0.40;;;8.40;99.90;;;;;;5094798;28;20433;-68
2022/10/12 08:08:31;;;;;;;0.40;0.40;;;8.50;99.90;;;;;;5096162;28;20977;-67
2022/10/12 08:11:20;;;;;;;0.50;0.50;;;8.60;99.90;;;;;;5097022;28;20423;-68
2022/10/12 08:14:13;;;;;;;0.40;0.40;;;8.70;99.90;;;;;;5097097;28;21060;-68
2022/10/12 08:17:04;;;;;;;0.40;0.40;;;8.80;99.90;;;;;;5096497;28;20465;-67
2022/10/12 08:19:52;;;;;;;0.40;0.40;;;8.80;99.90;;;;;;5096784;28;20443;-67
2022/10/12 08:22:40;;;;;;;0.40;0.40;;;9.00;99.90;;;;;;5092931;28;20791;-67
2022/10/12 08:25:28;;;;;;;0.50;0.50;;;9.10;99.90;;;;;;5093049;28;20414;-67
2022/10/12 08:28:16;;;;;;;0.40;0.40;;;9.20;99.90;;;;;;5124246;22;20563;-67
2022/10/12 08:31:09;;;;;;;0.40;0.40;;;9.30;99.90;;;;;;5096521;28;20426;-67
2022/10/12 08:33:59;;;;;;;0.40;0.40;;;9.40;99.90;;;;;;5094928;28;20928;-67
2022/10/12 08:36:47;;;;;;;0.40;0.40;;;9.50;99.90;;;;;;5093569;28;21233;-68
2022/10/12 08:39:35;;;;;;;0.40;0.40;;;9.60;99.90;;;;;;5074868;28;20423;-67
2022/10/12 08:42:33;;;;;;;0.40;0.40;;;9.70;99.90;;;;;;5073151;28;20430;-67
2022/10/12 08:45:30;;;;;;;0.40;0.40;;;9.80;99.90;;;;;;5073675;28;20415;-67
2022/10/12 08:48:23;;;;;;;0.40;0.40;;;9.90;99.90;;;;;;5075587;28;20452;-67
2022/10/12 08:51:16;;;;;;;0.40;0.40;;;10.00;99.90;;;;;;5065384;28;20420;-67
2022/10/12 08:54:07;;;;;;;0.40;0.40;;;10.00;99.90;;;;;;5063585;28;20426;-68
2022/10/12 08:56:56;;;;;;;0.40;0.40;;;10.20;99.90;;;;;;5064832;28;20431;-68
2022/10/12 08:59:45;;;;;;;0.40;0.40;;;10.20;99.90;;;;;;5054243;28;20805;-67
2022/10/12 09:02:45;;;;;;;0.40;0.40;;;10.30;99.90;;;;;;5054896;28;20424;-67
2022/10/12 09:05:40;;;;;;;0.40;0.40;;;10.40;99.90;;;;;;5053737;28;20439;-68
2022/10/12 09:08:38;;;;;;;0.40;0.40;;;10.50;99.90;;;;;;5073295;28;20444;-68
2022/10/12 09:11:44;;;;;;;0.40;0.40;;;10.60;99.90;;;;;;5082436;28;20494;-67
2022/10/12 09:14:35;;;;;;;0.40;0.40;;;10.70;99.90;;;;;;5082896;28;20481;-67
2022/10/12 09:17:28;;;;;;;0.40;0.40;;;10.90;99.90;;;;;;5079772;28;20490;-68
2022/10/12 09:20:19;;;;;;;0.40;0.40;;;10.90;99.90;;;;;;5066915;28;20546;-67
2022/10/12 09:23:24;;;;;;;0.40;0.40;;;11.00;99.90;;;;;;5070227;28;20435;-67
2022/10/12 09:26:18;;;;;;;0.40;0.40;;;11.10;99.90;;;;;;5075736;28;20426;-67
2022/10/12 09:29:21;;;;;;;0.40;0.40;;;11.30;99.90;;;;;;5079369;28;20448;-67
2022/10/12 09:32:23;;;;;;;3.10;2.93;;;11.40;99.90;;;;;;5088958;28;20450;-67
2022/10/12 09:35:13;;;;;;;0.40;0.40;;;11.50;99.90;;;;;;5089899;28;20458;-67
2022/10/12 09:38:02;;;;;;;0.40;0.40;;;11.50;99.90;;;;;;5089353;28;20501;-68
2022/10/12 09:40:50;;;;;;;0.40;0.40;;;11.60;99.90;;;;;;5084848;28;20419;-67
2022/10/12 09:43:40;;;;;;;0.40;0.40;;;11.70;99.90;;;;;;5088316;28;20871;-68
2022/10/12 09:46:37;;;;;;;0.40;0.40;;;11.80;99.90;;;;;;5070697;28;20454;-67
2022/10/12 09:49:40;;;;;;;0.40;0.40;;;11.90;99.90;;;;;;5064958;28;20948;-67
2022/10/12 09:52:31;;;;;;;0.40;0.40;;;12.00;99.90;;;;;;5059216;28;20432;-68
2022/10/12 09:55:25;;;;;;;4.23;3.43;;;12.00;99.90;;;;;;5054811;28;20534;-68
2022/10/12 09:58:20;;;;;;;0.40;0.40;;;12.10;99.90;;;;;;5071491;28;20455;-67
2022/10/12 10:01:22;;;;;;;0.40;0.40;;;12.20;99.90;;;;;;5073431;28;20428;-67
2022/10/12 10:04:16;;;;;;;0.40;0.40;;;12.30;99.90;;;;;;5060706;28;20435;-67
2022/10/12 10:07:21;;;;;;;0.40;0.40;;;12.40;99.90;;;;;;5061747;28;20928;-67
2022/10/12 10:10:16;;;;;;;0.40;0.40;;;12.40;99.90;;;;;;5051749;28;20420;-68
2022/10/12 10:13:05;;;;;;;0.40;0.40;;;12.50;99.90;;;;;;5052229;28;20455;-69
2022/10/12 10:16:03;;;;;;;0.40;0.40;;;12.60;99.90;;;;;;5052505;28;20448;-67
2022/10/12 10:18:58;;;;;;;0.40;0.40;;;12.70;99.90;;;;;;5052289;28;20463;-68
2022/10/12 10:21:46;;;;;;;0.40;0.40;;;12.80;99.90;;;;;;5052561;28;21018;-68
2022/10/12 10:24:35;;;;;;;1.30;0.77;;;12.80;99.90;;;;;;5067803;28;20427;-67
2022/10/12 10:27:39;;;;;;;0.40;0.40;;;12.90;99.90;;;;;;5070683;28;20443;-67
2022/10/12 10:30:36;;;;;;;0.40;0.40;;;13.00;99.90;;;;;;5064922;28;20416;-68
2022/10/12 10:33:29;;;;;;;0.40;0.40;;;13.00;99.90;;;;;;5068690;28;20428;-68
2022/10/12 10:36:21;;;;;;;0.40;0.40;;;13.10;99.90;;;;;;5065452;28;20474;-67
2022/10/12 10:39:18;;;;;;;0.40;0.40;;;13.20;99.90;;;;;;5068526;28;20443;-67
2022/10/12 10:42:11;;;;;;;0.40;0.40;;;13.20;99.90;;;;;;5072053;28;20611;-66
2022/10/12 10:45:02;;;;;;;0.40;0.40;;;13.30;99.90;;;;;;5077348;28;20431;-67
2022/10/12 10:47:53;;;;;;;0.40;0.40;;;13.40;99.90;;;;;;5070746;28;21004;-66
2022/10/12 10:50:43;;;;;;;0.40;0.40;;;13.40;99.90;;;;;;5067204;28;20522;-67
2022/10/12 10:53:44;;;;;;;0.40;0.40;;;13.50;99.90;;;;;;5058919;28;20463;-67
2022/10/12 10:56:33;;;;;;;0.80;0.80;;;13.40;99.90;;;;;;5075118;28;21009;-68
2022/10/12 10:59:36;;;;;;;0.40;0.40;;;13.50;99.90;;;;;;5066885;28;20519;-67
2022/10/12 11:02:31;;;;;;;0.40;0.40;;;13.60;99.90;;;;;;5060269;28;20523;-67
2022/10/12 11:05:24;;;;;;;0.40;0.40;;;13.70;99.90;;;;;;5065046;28;20511;-67
2022/10/12 11:08:17;;;;;;;0.40;0.40;;;13.80;99.90;;;;;;5073370;28;20447;-67
2022/10/12 11:11:12;;;;;;;0.40;0.40;;;13.80;99.90;;;;;;5061454;28;20441;-68
2022/10/12 11:14:04;;;;;;;0.40;0.40;;;13.90;99.90;;;;;;5074671;28;20435;-67
2022/10/12 11:16:56;;;;;;;0.40;0.40;;;13.90;99.90;;;;;;5075093;28;20470;-66
2022/10/12 11:19:50;;;;;;;0.40;0.40;;;14.00;99.90;;;;;;5072933;28;20443;-66
2022/10/12 11:22:48;;;;;;;0.40;0.40;;;14.00;99.90;;;;;;5069769;28;20523;-66
2022/10/12 11:25:43;;;;;;;0.50;0.50;;;14.10;99.90;;;;;;5070141;28;20426;-66
2022/10/12 11:28:38;;;;;;;0.40;0.40;;;14.10;99.90;;;;;;5066599;28;20466;-66
2022/10/12 11:31:31;;;;;;;0.40;0.40;;;14.30;99.90;;;;;;5066908;28;20427;-67
2022/10/12 11:34:22;;;;;;;0.40;0.40;;;14.40;99.90;;;;;;5061397;28;20429;-65
2022/10/12 11:37:18;;;;;;;0.40;0.40;;;14.50;99.90;;;;;;5069430;28;20851;-66
2022/10/12 11:40:19;;;;;;;0.40;0.40;;;14.50;99.90;;;;;;5060268;28;20439;-68
2022/10/12 11:43:33;;;;;;;0.50;0.50;;;14.60;99.90;;;;;;5075068;28;20585;-66
2022/10/12 11:46:31;;;;;;;0.50;0.50;;;14.60;99.90;;;;;;5059905;28;20833;-67
2022/10/12 11:49:26;;;;;;;0.40;0.40;;;14.70;99.90;;;;;;5068822;28;20431;-67
2022/10/12 11:52:15;;;;;;;0.40;0.40;;;14.70;99.90;;;;;;5075579;28;20447;-67
2022/10/12 11:55:22;;;;;;;0.40;0.40;;;14.70;99.90;;;;;;5055364;28;20212;-66
2022/10/12 11:58:17;;;;;;;0.40;0.40;;;14.80;99.90;;;;;;5067618;28;20217;-67
2022/10/12 12:01:36;;;;;;;0.40;0.40;;;14.80;99.90;;;;;;5079552;28;20446;-71
2022/10/12 12:04:29;;;;;;;0.40;0.40;;;14.80;99.90;;;;;;5076932;28;20420;-68
2022/10/12 12:07:55;;;;;;;0.40;0.40;;;14.80;99.90;;;;;;5085507;28;20447;-67
2022/10/12 12:10:51;;;;;;;0.40;0.40;;;14.90;99.90;;;;;;5075343;28;20934;-67
2022/10/12 12:13:39;;;;;;;0.40;0.40;;;15.00;99.90;;;;;;5076252;28;20427;-67
2022/10/12 12:16:31;;;;;;;0.40;0.40;;;15.00;99.90;;;;;;5075047;28;20468;-67
2022/10/12 12:19:42;;;;;;;0.40;0.40;;;14.90;99.90;;;;;;5074044;28;20294;-67
2022/10/12 12:22:49;;;;;;;0.40;0.40;;;14.90;99.90;;;;;;5067566;28;20419;-67
2022/10/12 12:25:37;;;;;;;0.40;0.40;;;14.90;99.90;;;;;;5072666;28;20442;-67
2022/10/12 12:28:25;;;;;;;0.40;0.40;;;14.80;99.90;;;;;;5061901;28;20521;-67
2022/10/12 12:31:16;;;;;;;0.40;0.40;;;14.80;99.90;;;;;;5073132;28;20200;-66
2022/10/12 12:34:07;;;;;;;0.40;0.40;;;14.70;99.90;;;;;;5074478;28;20302;-67
2022/10/12 12:37:09;;;;;;;0.40;0.40;;;14.90;99.90;;;;;;5072903;28;20910;-69
2022/10/12 12:39:58;;;;;;;0.40;0.40;;;14.90;99.90;;;;;;5081932;28;20496;-66
2022/10/12 12:42:46;;;;;;;0.40;0.40;;;15.00;99.90;;;;;;5076717;28;20441;-66
2022/10/12 12:45:52;;;;;;;0.40;0.40;;;15.20;99.90;;;;;;5073471;28;20189;-67
2022/10/12 12:49:06;;;;;;;0.40;0.40;;;15.30;99.90;;;;;;5073602;28;20603;-67
2022/10/12 12:51:58;;;;;;;0.40;0.40;;;15.40;99.90;;;;;;5064541;28;20193;-67
2022/10/12 12:55:16;;;;;;;0.40;0.40;;;15.40;99.90;;;;;;5063676;28;20519;-69
2022/10/12 12:58:31;;;;;;;0.40;0.40;;;15.50;99.90;;;;;;5064415;28;20235;-67
2022/10/12 13:01:36;;;;;;;0.40;0.40;;;15.50;99.90;;;;;;5066680;28;20258;-67
2022/10/12 13:04:37;;;;;;;0.40;0.40;;;15.50;99.90;;;;;;5070674;28;20201;-68
2022/10/12 13:07:57;;;;;;;0.40;0.40;;;15.50;99.90;;;;;;5081358;28;20517;-67
2022/10/12 13:11:04;;;;;;;0.40;0.40;;;15.60;99.90;;;;;;5085653;28;20254;-68
2022/10/12 13:14:06;;;;;;;0.40;0.40;;;15.60;99.90;;;;;;5085039;28;20262;-67
2022/10/12 13:17:07;;;;;;;0.40;0.40;;;15.70;99.90;;;;;;5085601;28;20216;-67
2022/10/12 13:20:19;;;;;;;0.40;0.40;;;15.70;99.90;;;;;;5077239;28;20201;-68
2022/10/12 13:23:14;;;;;;;0.40;0.40;;;15.70;99.90;;;;;;5083801;28;20193;-68
2022/10/12 13:26:06;;;;;;;0.40;0.40;;;15.70;99.90;;;;;;5090550;28;20215;-67
2022/10/12 13:28:56;;;;;;;0.40;0.40;;;15.70;99.90;;;;;;5074724;28;20228;-67
2022/10/12 13:31:47;;;;;;;0.40;0.40;;;15.70;99.90;;;;;;5064381;28;20220;-67
2022/10/12 13:34:41;;;;;;;0.40;0.40;;;15.70;99.90;;;;;;5072640;28;20617;-67
2022/10/12 13:37:31;;;;;;;0.40;0.40;;;15.70;99.90;;;;;;5065733;28;20229;-68
2022/10/12 13:40:32;;;;;;;0.40;0.40;;;15.80;99.90;;;;;;5054935;28;20202;-68
2022/10/12 13:43:28;;;;;;;0.40;0.40;;;15.80;99.90;;;;;;5055152;28;20205;-68
2022/10/12 13:46:37;;;;;;;0.40;0.40;;;15.80;99.90;;;;;;5054369;28;20212;-67
2022/10/12 13:49:27;;;;;;;0.40;0.40;;;15.80;99.90;;;;;;5054274;28;20211;-67
2022/10/12 13:52:20;;;;;;;0.40;0.40;;;15.90;99.90;;;;;;5054756;28;20201;-65
2022/10/12 13:55:15;;;;;;;0.40;0.40;;;16.20;99.90;;;;;;5054652;28;20216;-66
2022/10/12 13:58:04;;;;;;;0.45;0.45;;;16.50;99.90;;;;;;5063762;28;20747;-66
2022/10/12 14:00:53;;;;;;;0.40;0.40;;;17.00;99.90;;;;;;5067156;28;20208;-66
2022/10/12 14:03:43;;;;;;;0.40;0.40;;;17.40;99.90;;;;;;5063565;28;20208;-66
2022/10/12 14:06:35;;;;;;;0.40;0.40;;;17.80;99.90;;;;;;5060845;28;20717;-66
2022/10/12 14:09:26;;;;;;;0.40;0.40;;;18.40;99.90;;;;;;5071511;28;20760;-66
2022/10/12 14:12:16;;;;;;;0.40;0.40;;;19.20;99.90;;;;;;5068342;28;20207;-67
2022/10/12 14:15:13;;;;;;;0.40;0.40;;;19.80;99.90;;;;;;5077241;28;20209;-67
2022/10/12 14:18:01;;;;;;;0.40;0.40;;;20.20;99.90;;;;;;5064460;28;20302;-66
2022/10/12 14:20:49;;;;;;;0.40;0.40;;;20.80;99.90;;;;;;5076801;28;20286;-67
2022/10/12 14:23:42;;;;;;;0.40;0.40;;;21.80;99.90;;;;;;5077308;28;20275;-67
2022/10/12 14:26:34;;;;;;;0.40;0.40;;;22.60;98.00;;;;;;5075536;28;20696;-67
2022/10/12 14:29:31;;;;;;;0.40;0.40;;;23.70;94.90;;;;;;5076649;28;20291;-67
2022/10/12 14:32:39;;;;;;;0.40;0.40;;;24.50;91.70;;;;;;5077065;28;20288;-69
2022/10/12 14:35:29;;;;;;;0.40;0.40;;;25.20;88.60;;;;;;5075742;28;20205;-69
2022/10/12 14:38:37;;;;;;;0.40;0.40;;;25.50;84.10;;;;;;5076014;28;20606;-67
2022/10/12 14:41:34;;;;;;;5.63;5.18;;;25.70;82.50;;;;;;5074764;28;20211;-69
2022/10/12 14:44:25;;;;;;;0.40;0.40;;;25.40;81.70;;;;;;5075813;28;20215;-69
2022/10/12 14:47:19;;;;;;;0.40;0.40;;;23.40;82.00;;;;;;5074195;28;20205;-69
2022/10/12 14:50:16;;;;;;;0.40;0.40;;;23.20;82.70;;;;;;5075866;28;20204;-69
2022/10/12 14:53:09;;;;;;;0.40;0.40;;;22.10;84.60;;;;;;5075297;28;20201;-69
2022/10/12 14:55:57;;;;;;;0.40;0.40;;;20.80;87.10;;;;;;5074236;28;20568;-69
2022/10/12 14:58:45;;;;;;;0.40;0.40;;;19.50;90.40;;;;;;5078288;28;20604;-69
2022/10/12 15:01:33;;;;;;;0.40;0.40;;;18.50;91.20;;;;;;5066418;28;20200;-68
2022/10/12 15:04:28;;;;;;;0.40;0.40;;;18.00;92.40;;;;;;5066529;28;20196;-69